Cote D IVoirian Star — A8SL4 — position and weather

sailwx.info

Track history (hours):
 
Tides and Currents Weather Stations Pressure Air Temp Water Temp Dewpoint Dewpoint Depression Visibility Wind Speed Wind Dir Waves Ship Positions

Cote D IVoirian Star

Last reported at 2017-Sep-25 05:59 UTC. Time now 2017-Sep-25 06:15 UTC.
Position N 51°16' E 004°15'.

Length 185 m; draft 7.7 m.

Type: Cargo ship. MMSI: 636014241.

Date/timePositionNaut miles runAvg speedWind from/ knotsBaromVisibWave heightAir tempDewpointWater temp
2017-Sep-25 05:59N 51°16' E 004°15'0 0.0
2017-Sep-25 05:29N 51°16' E 004°15'0 0.0
2017-Sep-25 04:59N 51°16' E 004°15'0 0.0
2017-Sep-25 04:29N 51°16' E 004°15'0 0.0
2017-Sep-25 03:59N 51°16' E 004°15'0 0.0
2017-Sep-25 03:29N 51°16' E 004°15'0 0.0
2017-Sep-25 02:59N 51°16' E 004°15'0 0.0
2017-Sep-25 02:29N 51°16' E 004°15'0 0.0
2017-Sep-25 01:56N 51°16' E 004°15'0 0.0
2017-Sep-25 01:29N 51°16' E 004°15'0 0.0
2017-Sep-25 00:59N 51°16' E 004°15'0 0.0
2017-Sep-25 00:29N 51°16' E 004°15'0 0.0
2017-Sep-24 23:59N 51°16' E 004°15'0 0.0
2017-Sep-24 23:29N 51°16' E 004°15'0 0.0
2017-Sep-24 22:59N 51°16' E 004°15'0 0.0
2017-Sep-24 22:29N 51°16' E 004°15'0 0.0
2017-Sep-24 21:59N 51°16' E 004°15'0 0.0
2017-Sep-24 21:29N 51°16' E 004°15'0 0.0
2017-Sep-24 20:53N 51°16' E 004°15'0 0.0
2017-Sep-24 20:29N 51°16' E 004°15'0 0.0
2017-Sep-24 19:59N 51°16' E 004°15'0 0.0
2017-Sep-24 19:29N 51°16' E 004°15'0 0.4
2017-Sep-24 19:01N 51°16' E 004°15'1 1.7
2017-Sep-24 18:31N 51°17' E 004°15'0 0.2
2017-Sep-24 18:00N 51°17' E 004°15'2 4.4
2017-Sep-24 17:31N 51°19' E 004°16'5 9.9
2017-Sep-24 17:00N 51°23' E 004°13'612.1
2017-Sep-24 16:30N 51°23' E 004°03'4 7.7
2017-Sep-24 16:00N 51°24' E 003°57'714.6
2017-Sep-24 15:31N 51°22' E 003°46'713.2
2017-Sep-24 15:01N 51°26' E 003°38'713.9
2017-Sep-24 14:31N 51°25' E 003°28'918.4
2017-Sep-24 14:01N 51°24' E 003°13'816.7
2017-Sep-24 13:31N 51°24' E 002°59'816.1
2017-Sep-24 13:00N 51°22' E 002°47'611.0
2017-Sep-24 12:29N 51°22' E 002°38'4 8.8
2017-Sep-24 12:01N 51°22' E 002°31'3 6.3
2017-Sep-24 11:30N 51°21' E 002°26'0 0.9
2017-Sep-24 11:00N 51°20' E 002°25'1 2.0
2017-Sep-24 10:31N 51°20' E 002°24'1 1.1
2017-Sep-24 10:00N 51°20' E 002°25'1 1.2
2017-Sep-24 09:31N 51°20' E 002°24'3 7.0
2017-Sep-24 09:01N 51°18' E 002°19'816.3
2017-Sep-24 08:31N 51°14' E 002°08'917.5
2017-Sep-24 08:01N 51°10' E 001°56'917.3
2017-Sep-24 07:31N 51°06' E 001°44'917.9
2017-Sep-24 07:01N 50°60' E 001°33'918.4
2017-Sep-24 06:30N 50°52' E 001°25'918.9
2017-Sep-24 06:01N 50°43' E 001°20'1018.8
2017-Sep-24 05:27N 50°36' E 001°08'818.6
2017-Sep-24 05:01N 50°31' E 000°58'2718.2
2017-Sep-24 03:30N 50°22' E 000°17'918.0
2017-Sep-24 03:00N 50°20' E 000°04'917.9
2017-Sep-24 02:31N 50°21' W 000°10'918.3
2017-Sep-24 02:00N 50°24' W 000°24'918.7
2017-Sep-24 01:31N 50°29' W 000°36'918.4
2017-Sep-24 01:01N 50°34' W 000°48'816.1
2017-Sep-24 00:31N 50°39' W 000°59'5 9.4
2017-Sep-24 00:00N 50°43' W 001°01'611.1
2017-Sep-23 23:30N 50°47' W 001°07'1 2.7
2017-Sep-23 23:00N 50°49' W 001°06'0 0.2
2017-Sep-23 22:30N 50°49' W 001°05'0 0.0
2017-Sep-23 22:00N 50°49' W 001°05'0 0.0
2017-Sep-23 21:30N 50°49' W 001°05'0 0.0
2017-Sep-23 21:00N 50°49' W 001°05'0 0.0
2017-Sep-23 20:30N 50°49' W 001°05'0 0.0
2017-Sep-23 20:00N 50°49' W 001°05'  
2017-Sep-21 02:30N 37°11' W 012°48'1018.9
2017-Sep-21 01:58N 37°01' W 012°51'918.9
2017-Sep-21 01:31N 36°53' W 012°54'3218.9
2017-Sep-20 23:49N 36°22' W 013°05'618.8
2017-Sep-20 23:30N 36°16' W 013°07'918.6
2017-Sep-20 23:00N 36°08' W 013°10'918.7
2017-Sep-20 22:30N 35°58' W 013°13'1218.7
2017-Sep-20 21:52N 35°47' W 013°17'918.7
2017-Sep-20 21:23N 35°38' W 013°20'718.8
2017-Sep-20 21:00N 35°31' W 013°23'1218.8
2017-Sep-20 20:20N 35°19' W 013°27'719.0
2017-Sep-20 19:58N 35°12' W 013°29'2719.2
2017-Sep-20 18:32N 34°46' W 013°38'019.2
2017-Sep-20 18:30N 34°46' W 013°38'27318.9
2017-Sep-20 04:04N 30°23' W 015°06'118.1
2017-Sep-20 04:00N 30°22' W 015°07'1218.4
2017-Sep-20 03:22N 30°10' W 015°10'818.5
2017-Sep-20 02:57N 30°03' W 015°13'818.5
2017-Sep-20 02:30N 29°55' W 015°15'1018.6
2017-Sep-20 01:59N 29°46' W 015°18'1318.7
2017-Sep-20 01:17N 29°33' W 015°22'519.0
2017-Sep-20 01:00N 29°28' W 015°24'1018.8
2017-Sep-20 00:28N 29°18' W 015°27'918.8
2017-Sep-20 00:00N 29°10' W 015°29'918.8
2017-Sep-19 23:30N 29°01' W 015°32'918.9
2017-Sep-19 23:00N 28°52' W 015°36'918.9
2017-Sep-19 22:30N 28°43' W 015°39'918.7
2017-Sep-19 22:00N 28°34' W 015°42'918.7
2017-Sep-19 21:30N 28°26' W 015°49'918.5
2017-Sep-19 21:00N 28°19' W 015°56'918.5
2017-Sep-19 20:30N 28°12' W 016°02'1917.9
2017-Sep-19 19:25N 27°56' W 016°15'1117.5
2017-Sep-19 18:49N 27°46' W 016°18'617.2
2017-Sep-19 18:29N 27°41' W 016°20'17818.1
2017-Sep-19 08:39N 24°48' W 017°08'  
Track history (hours):
 
Tides and Currents Weather Stations Pressure Air Temp Water Temp Dewpoint Dewpoint Depression Visibility Wind Speed Wind Dir Waves Ship Positions

Cote D IVoirian Star

Last reported at 2017-Sep-25 05:59 UTC. Time now 2017-Sep-25 06:15 UTC.
Position N 51°16' E 004°15'.

Length 185 m; draft 7.7 m.

Type: Cargo ship. MMSI: 636014241.

Date/timePositionNaut miles runAvg speedWind from/ knotsBaromVisibWave heightAir tempDewpointWater temp
2017-Sep-25 05:59N 51°16' E 004°15'0 0.0
2017-Sep-25 05:29N 51°16' E 004°15'0 0.0
2017-Sep-25 04:59N 51°16' E 004°15'0 0.0
2017-Sep-25 04:29N 51°16' E 004°15'0 0.0
2017-Sep-25 03:59N 51°16' E 004°15'0 0.0
2017-Sep-25 03:29N 51°16' E 004°15'0 0.0
2017-Sep-25 02:59N 51°16' E 004°15'0 0.0
2017-Sep-25 02:29N 51°16' E 004°15'0 0.0
2017-Sep-25 01:56N 51°16' E 004°15'0 0.0
2017-Sep-25 01:29N 51°16' E 004°15'0 0.0
2017-Sep-25 00:59N 51°16' E 004°15'0 0.0
2017-Sep-25 00:29N 51°16' E 004°15'0 0.0
2017-Sep-24 23:59N 51°16' E 004°15'0 0.0
2017-Sep-24 23:29N 51°16' E 004°15'0 0.0
2017-Sep-24 22:59N 51°16' E 004°15'0 0.0
2017-Sep-24 22:29N 51°16' E 004°15'0 0.0
2017-Sep-24 21:59N 51°16' E 004°15'0 0.0
2017-Sep-24 21:29N 51°16' E 004°15'0 0.0
2017-Sep-24 20:53N 51°16' E 004°15'0 0.0
2017-Sep-24 20:29N 51°16' E 004°15'0 0.0
2017-Sep-24 19:59N 51°16' E 004°15'0 0.0
2017-Sep-24 19:29N 51°16' E 004°15'0 0.4
2017-Sep-24 19:01N 51°16' E 004°15'1 1.7
2017-Sep-24 18:31N 51°17' E 004°15'0 0.2
2017-Sep-24 18:00N 51°17' E 004°15'2 4.4
2017-Sep-24 17:31N 51°19' E 004°16'5 9.9
2017-Sep-24 17:00N 51°23' E 004°13'612.1
2017-Sep-24 16:30N 51°23' E 004°03'4 7.7
2017-Sep-24 16:00N 51°24' E 003°57'714.6
2017-Sep-24 15:31N 51°22' E 003°46'713.2
2017-Sep-24 15:01N 51°26' E 003°38'713.9
2017-Sep-24 14:31N 51°25' E 003°28'918.4
2017-Sep-24 14:01N 51°24' E 003°13'816.7
2017-Sep-24 13:31N 51°24' E 002°59'816.1
2017-Sep-24 13:00N 51°22' E 002°47'611.0
2017-Sep-24 12:29N 51°22' E 002°38'4 8.8
2017-Sep-24 12:01N 51°22' E 002°31'3 6.3
2017-Sep-24 11:30N 51°21' E 002°26'0 0.9
2017-Sep-24 11:00N 51°20' E 002°25'1 2.0
2017-Sep-24 10:31N 51°20' E 002°24'1 1.1
2017-Sep-24 10:00N 51°20' E 002°25'1 1.2
2017-Sep-24 09:31N 51°20' E 002°24'3 7.0
2017-Sep-24 09:01N 51°18' E 002°19'816.3
2017-Sep-24 08:31N 51°14' E 002°08'917.5
2017-Sep-24 08:01N 51°10' E 001°56'917.3
2017-Sep-24 07:31N 51°06' E 001°44'917.9
2017-Sep-24 07:01N 50°60' E 001°33'918.4
2017-Sep-24 06:30N 50°52' E 001°25'918.9
2017-Sep-24 06:01N 50°43' E 001°20'1018.8
2017-Sep-24 05:27N 50°36' E 001°08'818.6
2017-Sep-24 05:01N 50°31' E 000°58'2718.2
2017-Sep-24 03:30N 50°22' E 000°17'918.0
2017-Sep-24 03:00N 50°20' E 000°04'917.9
2017-Sep-24 02:31N 50°21' W 000°10'918.3
2017-Sep-24 02:00N 50°24' W 000°24'918.7
2017-Sep-24 01:31N 50°29' W 000°36'918.4
2017-Sep-24 01:01N 50°34' W 000°48'816.1
2017-Sep-24 00:31N 50°39' W 000°59'5 9.4
2017-Sep-24 00:00N 50°43' W 001°01'611.1
2017-Sep-23 23:30N 50°47' W 001°07'1 2.7
2017-Sep-23 23:00N 50°49' W 001°06'0 0.2
2017-Sep-23 22:30N 50°49' W 001°05'0 0.0
2017-Sep-23 22:00N 50°49' W 001°05'0 0.0
2017-Sep-23 21:30N 50°49' W 001°05'0 0.0
2017-Sep-23 21:00N 50°49' W 001°05'0 0.0
2017-Sep-23 20:30N 50°49' W 001°05'0 0.0
2017-Sep-23 20:00N 50°49' W 001°05'  
2017-Sep-21 02:30N 37°11' W 012°48'1018.9
2017-Sep-21 01:58N 37°01' W 012°51'918.9
2017-Sep-21 01:31N 36°53' W 012°54'3218.9
2017-Sep-20 23:49N 36°22' W 013°05'618.8
2017-Sep-20 23:30N 36°16' W 013°07'918.6
2017-Sep-20 23:00N 36°08' W 013°10'918.7
2017-Sep-20 22:30N 35°58' W 013°13'1218.7
2017-Sep-20 21:52N 35°47' W 013°17'918.7
2017-Sep-20 21:23N 35°38' W 013°20'718.8
2017-Sep-20 21:00N 35°31' W 013°23'1218.8
2017-Sep-20 20:20N 35°19' W 013°27'719.0
2017-Sep-20 19:58N 35°12' W 013°29'2719.2
2017-Sep-20 18:32N 34°46' W 013°38'019.2
2017-Sep-20 18:30N 34°46' W 013°38'27318.9
2017-Sep-20 04:04N 30°23' W 015°06'118.1
2017-Sep-20 04:00N 30°22' W 015°07'1218.4
2017-Sep-20 03:22N 30°10' W 015°10'818.5
2017-Sep-20 02:57N 30°03' W 015°13'818.5
2017-Sep-20 02:30N 29°55' W 015°15'1018.6
2017-Sep-20 01:59N 29°46' W 015°18'1318.7
2017-Sep-20 01:17N 29°33' W 015°22'519.0
2017-Sep-20 01:00N 29°28' W 015°24'1018.8
2017-Sep-20 00:28N 29°18' W 015°27'918.8
2017-Sep-20 00:00N 29°10' W 015°29'918.8
2017-Sep-19 23:30N 29°01' W 015°32'918.9
2017-Sep-19 23:00N 28°52' W 015°36'918.9
2017-Sep-19 22:30N 28°43' W 015°39'918.7
2017-Sep-19 22:00N 28°34' W 015°42'918.7
2017-Sep-19 21:30N 28°26' W 015°49'918.5
2017-Sep-19 21:00N 28°19' W 015°56'918.5
2017-Sep-19 20:30N 28°12' W 016°02'1917.9
2017-Sep-19 19:25N 27°56' W 016°15'1117.5
2017-Sep-19 18:49N 27°46' W 016°18'617.2
2017-Sep-19 18:29N 27°41' W 016°20'17818.1
2017-Sep-19 08:39N 24°48' W 017°08'  

Dump ship's entire track history